TJSJTNCM

Guest
Details From TJSJ - San Juan - Luis Munoz Marin Intl
To TNCM - St Maarten - Princess Juliana Intl
Flight Number -
Tags generated
Created
Modified
Stats Distance 167 nm / 309 km
Max Altitude 19,100 ft / 5,822 m
Waypoints 3
Social Downloads 3
Likes 0
Share VATSIM

Download

Looking for another format? Having issues loading an existing format? Contact us
Advertisement - Login to hide

Notes

Basic altitude profile: - Ascent Rate: 2000ft/min - Ascent Speed: 280kts - Cruise Altitude: 20000ft - Cruise Speed: 360kts - Descent Rate: 1500ft/min - Descent Speed: 300kts Options: - Use NATs: yes - Use PACOTS: yes - Use low airways: yes - Use high airways: yes

Route

TJSJ PASIC TNCM

ID Type Via Altitude (ft/m) Position (lat/lon) Dist (leg/tot) Name
O TJSJ APT - 0 / 0 18.43878 / -66.00202 - / 0 nm San Juan - Luis Munoz Marin Intl
PASIC FIX - 19,100 / 5,822 18.29481 / -64.65002 77 / 77 nm
O TNCM APT - 0 / 0 18.04089 / -63.10897 89 / 166 nm St Maarten - Princess Juliana Intl

Altitude Profile

Advertisement - Login to hide

Weather


0- 5 10 15 20 25 30 35+ Temperature / °C

Clouds and Precipitation
Forecast for 2019-03-23 18:00 UTC. Updated 3 hours ago

Ground ~20,000 ft ~40,000 ft Winds

TJSJ

Details ICAO TJSJ (SJU)
Name Luis Munoz Marin Intl
Region USA (Puerto Rico)
Timezone America/Puerto_Rico (UTC-4.0)
Stats Elevation 8 ft / 2 m (AMSL)
Location 18.438700° -66.002200°
Runways 2
Magnetic Variation 13.280° W

METAR

TJSJ 231756Z 07014KT 10SM FEW039 SCT060 SCT075 28/21 A3006

Decode

TAF

TAF TJSJ 231743Z 2318/2418 08014KT P6SM VCSH SCT025 SCT040 SCT090 FM232200 10007KT P6SM FEW025 FM241400 07014KT P6SM FEW025 SCT060

Decode

Departure Runways

ID Width Length Bearing (true/mag) Surface Threshold Overrun Markings Lighting
08 200 ft / 61 m 10,410 ft / 3,173 m 66.85° / 80.13° ASPHALT 404 ft / 123 m 394 ft / 120 m PREC-APP EDGE THRESHOLD MALSR
10 151 ft / 46 m 8,008 ft / 2,441 m 90.14° / 103.42° CONCRETE 0 ft / 0 m 203 ft / 62 m PREC-APP EDGE THRESHOLD MALSR
26 200 ft / 61 m 10,410 ft / 3,173 m 246.86° / 260.14° ASPHALT 400 ft / 122 m 397 ft / 121 m PREC-APP EDGE THRESHOLD REIL-OMNI
28 151 ft / 46 m 8,008 ft / 2,441 m 270.15° / 283.43° CONCRETE 0 ft / 0 m 200 ft / 61 m PREC-APP EDGE THRESHOLD

TNCM

Details ICAO TNCM (SXM)
Name Princess Juliana Intl
Region Caribbean Netherlands, Aruba, Curaçao, Sint Maarten
Timezone Unknown
Stats Elevation 14 ft / 4 m (AMSL)
Location 18.040900° -63.108900°
Runways 1
Magnetic Variation 14.360° W

METAR

TNCM 231800Z 13011KT 090V160 9999 FEW022 28/21 Q1018 NOSIG RMK A3008

Decode

TAF

TAF TNCM 231743Z 2318/2418 12014KT P6SM FEW020 FM240600 09009KT P6SM SCT022

Decode

Destination Runways

ID Width Length Bearing (true/mag) Surface Threshold Overrun Markings Lighting
10 148 ft / 45 m 7,553 ft / 2,302 m 81.44° / 95.80° ASPHALT 331 ft / 101 m 164 ft / 50 m PREC-APP EDGE THRESHOLD REIL-OMNI
28 148 ft / 45 m 7,553 ft / 2,302 m 261.45° / 275.81° ASPHALT 0 ft / 0 m 200 ft / 61 m APP EDGE THRESHOLD

Popular Alternatives